To NAV CANADA Home Page Login to a new session Search on AWWS site Feedback and Comments Disclaimer Vers la page française équivalente Tips FAQ What's new on the site To the Forecasts and Observations / NOTAM section To "File a Flight Plan" website Publications and other links Update of the User's profile FIC Telephone Numbers My Weather Data Folder Route Weather Data Regional Weather Data Local Weather Data To the Forecasts and Observations / NOTAM section
Request Generated 04/25/2015 at 06:30:02 UTC . Weather information available at that time is displayed.

METAR/TAF

SLAVE LAKE/AB    (show WxCam)

METAR CYZH 250600Z AUTO 10005KT 9SM BKN070 OVC190 01/M10 A2992 RMK
SLP157=
METAR CYZH 250500Z AUTO 08003KT 040V140 9SM SCT060 BKN200 OVC220
02/M09 A2991 RMK SLP152=
METAR CYZH 250400Z AUTO 07005KT 030V110 9SM FEW060 BKN075 BKN140
BKN160 04/M08 A2990 RMK SLP146=

TAF CYZH 250043Z 2501/2513 07007KT P6SM BKN050
BECMG 2502/2504 SCT050 BKN200
RMK FCST BASED ON AUTO OBS. NXT FCST BY 250700Z=
Your time UTC time
Weather data provided by Environment Canada and NAV CANADA